• Join FlightAware (Why Join?)
  • Login
  • US Flag 
11:09PM EDT


 

Airport Tracker/Info


-or-


 

Live Flight TrackerFlight Track Log ✈ UAL5887 ✈ 11-Apr-2013 ✈ KORD - CYOW

Flight Track Log - Related Links

Times and Time Zones

All times are in EDT time to prevent confusion due to time zone crossing. See the UAL5887 flight status page for this flight to view local times or setup timezone preferences in your user account.

Time Position Orientation Groundspeed Altitude Reporting Facility
EDT Latitude Longitude Course Direction KTS MPH feet Rate Location/Type
11:55AM 42.0394 -87.8033 69° East 210 242 4,700  Level Chicago Center
11:55AM 42.0500 -87.7667 69° East 258 297 4,900 2,160 Climbing Chicago TRACON
11:57AM 42.0564 -87.5989 87° East 281 323 9,200 2,340 Climbing Chicago Center
11:58AM 42.0564 -87.4881 90° East 292 336 11,600 2,100 Climbing Chicago Center
11:59AM 42.0531 -87.3706 92° East 310 357 13,600 1,500 Climbing Chicago Center
12:00PM 42.0469 -87.2403 94° East 344 396 14,800 1,200 Climbing Chicago Center
12:01PM 42.0386 -87.1056 95° East 360 414 16,200 1,440 Climbing Chicago Center
12:02PM 42.0272 -86.9333 95° East 384 442 17,800 1,560 Climbing Chicago Center
12:03PM 42.0197 -86.7833 94° East 400 460 19,400 1,500 Climbing Chicago Center
12:04PM 42.0161 -86.6381 92° East 415 478 20,900 1,680 Climbing Chicago Center
12:05PM 42.0381 -86.4797 79° East 429 494 22,900 1,860 Climbing Chicago Center
12:06PM 42.0589 -86.3239 80° East 428 493 24,800 960 Climbing Chicago Center
12:07PM 42.0794 -86.1594 80° East 441 507 25,000 60 Climbing Chicago Center
12:08PM 42.1069 -85.9575 80° East 481 554 25,000  Level Chicago Center
12:09PM 42.1294 -85.7728 81° East 502 578 25,000  Level Chicago Center
12:10PM 42.1528 -85.5831 81° East 516 594 25,000  Level Chicago Center
12:11PM 42.1814 -85.3642 80° East 518 596 25,000  Level Cleveland Center
12:12PM 42.2078 -85.1783 79° East 518 596 25,000  Level Cleveland Center
12:13PM 42.2272 -85.0003 82° East 505 581 25,000  Level Cleveland Center
12:14PM 42.2458 -84.8389 81° East 466 536 25,000  Level Cleveland Center
12:15PM 42.2642 -84.6828 81° East 437 503 25,000  Level Cleveland Center
12:16PM 42.2803 -84.5153 83° East 432 497 25,000 -120 Level Cleveland Center
12:17PM 42.3006 -84.3481 81° East 445 512 24,800 -540 Descending Cleveland Center
12:18PM 42.3272 -84.1700 78° East 461 531 24,000 -420 Descending Cleveland Center
12:19PM 42.3511 -83.9969 79° East 467 537 24,000  Level Cleveland Center
12:20PM 42.3869 -83.8386 73° East 461 531 24,000  Level Cleveland Center
12:21PM 42.4431 -83.6925 62° Northeast 442 509 24,000  Level Cleveland Center
12:22PM 42.4806 -83.5422 71° East 429 494 24,000  Level Cleveland Center
12:23PM 42.5156 -83.3917 72° East 419 482 24,000  Level Cleveland Center
12:24PM 42.5525 -83.2411 72° East 419 482 24,000 240 Level Cleveland Center
12:25PM 42.5892 -83.0903 72° East 419 482 24,500 480 Climbing Cleveland Center
12:26PM 42.6425 -82.9372 65° Northeast 429 494 25,000 240 Climbing Cleveland Center
12:27PM 42.6997 -82.7811 63° Northeast 444 511 25,000  Level Cleveland Center
12:28PM 42.7589 -82.6219 63° Northeast 454 522 25,000  Level Cleveland Center
12:29PM 42.8200 -82.4628 62° Northeast 466 536 25,000  Level Cleveland Center
12:30PM 42.8789 -82.3031 63° Northeast 466 536 25,000  Level Cleveland Center
12:31PM 42.9333 -82.1333 66° East 470 541 25,000  Level Toronto Center
12:32PM 42.9833 -81.9500 69° East 470 541 25,000  Level Toronto Center
12:33PM 43.0333 -81.8000 65° Northeast 470 541 25,000  Level Toronto Center
12:34PM 43.0833 -81.6500 65° Northeast 470 541 25,000  Level Toronto Center
12:35PM 43.1167 -81.4833 75° East 460 529 25,000  Level Toronto Center
12:36PM 43.1667 -81.3000 69° East 460 529 25,000  Level Toronto Center
12:37PM 43.2167 -81.1500 65° Northeast 460 529 25,000  Level Toronto Center
12:38PM 43.2667 -80.9667 69° East 470 541 25,000  Level Toronto Center
12:39PM 43.3167 -80.8000 68° East 470 541 25,000  Level Toronto Center
12:40PM 43.3667 -80.6500 65° Northeast 470 541 25,000  Level Toronto Center
12:41PM 43.4167 -80.4833 68° East 470 541 25,000  Level Toronto Center
12:42PM 43.4667 -80.3000 69° East 460 529 25,000  Level Toronto Center
12:43PM 43.5000 -80.1333 75° East 460 529 25,000  Level Toronto Center
12:44PM 43.5500 -79.9833 65° Northeast 460 529 25,000  Level Toronto Center
12:45PM 43.6000 -79.8167 67° East 450 518 25,000  Level Toronto Center
12:46PM 43.6333 -79.6500 74° East 440 506 25,000 -180 Level Toronto Center
12:47PM 43.6833 -79.5167 63° Northeast 440 506 24,700 -540 Descending Toronto Center
12:48PM 43.7333 -79.3500 67° East 430 495 24,000 -360 Descending Toronto Center
12:49PM 43.7667 -79.2000 73° East 430 495 24,000  Level Toronto Center
12:50PM 43.8167 -79.0333 67° East 430 495 24,000  Level Toronto Center
12:51PM 43.8667 -78.9000 62° Northeast 440 506 24,000  Level Toronto Center
12:52PM 43.9000 -78.7333 74° East 450 518 24,000  Level Toronto Center
12:53PM 43.9667 -78.5500 63° Northeast 460 529 24,000  Level Toronto Center
12:54PM 43.9833 -78.3833 82° East 470 541 24,000  Level Toronto Center
12:55PM 44.0500 -78.2167 61° Northeast 470 541 24,000  Level Toronto Center
12:56PM 44.1167 -78.0833 55° Northeast 460 529 24,000  Level Toronto Center
12:57PM 44.1833 -77.9167 61° Northeast 460 529 24,000  Level Toronto Center
12:58PM 44.2500 -77.7667 58° Northeast 460 529 24,000  Level Toronto Center
12:59PM 44.3167 -77.6333 55° Northeast 460 529 24,000  Level Toronto Center
01:00PM 44.4000 -77.4667 55° Northeast 460 529 24,000  Level Toronto Center
01:01PM 44.4500 -77.3167 65° Northeast 460 529 24,000 -60 Level Toronto Center
01:02PM 44.5167 -77.2167 47° Northeast 460 529 23,900 -1,080 Descending Montreal Center
01:03PM 44.5833 -77.0667 58° Northeast 450 518 22,100 -2,340 Descending Montreal Center
01:04PM 44.6500 -76.9167 58° Northeast 450 518 19,300 -2,580 Descending Montreal Center
01:05PM 44.7333 -76.8000 45° Northeast 450 518 17,000 -2,580 Descending Montreal Center
01:06PM 44.7833 -76.6500 65° Northeast 410 472 14,200 -2,820 Descending Montreal Center
01:07PM 44.8500 -76.5333 51° Northeast 380 437 11,400 -2,160 Descending Montreal Center
01:08PM 44.9167 -76.3833 58° Northeast 340 391 9,600 -1,500 Descending Toronto Center
01:09PM 44.9500 -76.3500 35° Northeast 290 334 8,400 -1,140 Descending Montreal Center
01:10PM 45.0000 -76.2500 55° Northeast 270 311 7,600 -960 Descending Montreal Center
01:11PM 45.0500 -76.1833 43° Northeast 260 299 6,500 -1,080 Descending Montreal Center
01:12PM 45.0833 -76.1167 55° Northeast 250 288 5,500 -960 Descending Montreal Center
01:13PM 45.1167 -76.0167 65° Northeast 240 276 4,600 -1,020 Descending Montreal Center
01:14PM 45.1667 -75.9500 43° Northeast 230 265 3,500 -840 Descending Montreal Center
01:15PM 45.2000 -75.9000 47° Northeast 220 253 3,000 -300 Descending Montreal Center
01:16PM 45.2333 -75.8333 55° Northeast 190 219 3,000 -540 Level Montreal Center
01:17PM 45.2500 -75.7500 74° East 180 207 2,000 -900 Descending Montreal Center
01:18PM 45.2667 -75.7000 65° Northeast 140 161 1,300 -780 Descending Montreal Center
01:19PM 45.3000 -75.6833 19° North 130 150 500 -840 Descending Montreal Center